Auburn, Indiana
Current Conditions -  °F | °C
As of 1:35 PM on Monday 22 Dec 2014 (Local Time) from KGWB Reporting Station
Haze Haze  
Wind Chill: -2°   Ceiling: Unl
Heat Index:   Visibility: 5mi
Dew Point: -2°   Wind: 7mph
Humidity: 81%   Direction: 100°E
Pressure: 29.91"   Gusts: NA
Location:  41.37°N, 85.05°W
Report Text: KGWB 221835Z AUTO 10006KT 5SM HZ SCT100 01/M02 A2991 RMK AO2
Loading
Personal Weather Stations






























Interactive Weather Map New forecast layout! Learn more

10-Day Weather Forecast

Advertisements
Track Severe Weather on mobile